Time;durP1;ratioP1;P1;durP2;ratioP2;P2;SDS_P1;SDS_P2;PMS_P1;PMS_P2;Temp;Humidity;BMP_temperature;BMP_pressure;BME280_temperature;BME280_humidity;BME280_pressure;Samples;Min_cycle;Max_cycle;Signal;HPM_P1;HPM_P2
2022/12/06 00:01:04;;;;;;;24.33;13.00;;;8.30;99.90;;;8.22;68.42;95583.31;5080727;28;20607;-55
2022/12/06 00:03:32;;;;;;;23.43;14.07;;;8.30;99.90;;;8.22;68.39;95583.31;5075727;28;20446;-56
2022/12/06 00:06:02;;;;;;;18.50;12.37;;;8.30;99.90;;;8.21;68.29;95585.09;5070301;28;20936;-54
2022/12/06 00:08:29;;;;;;;28.87;13.70;;;8.30;99.90;;;8.21;68.60;95581.63;5076017;28;20961;-56
2022/12/06 00:11:05;;;;;;;22.57;13.30;;;8.30;99.90;;;8.21;68.16;95582.47;5069628;28;20474;-56
2022/12/06 00:13:34;;;;;;;19.50;12.07;;;8.30;99.90;;;8.22;68.36;95573.66;5074783;28;20449;-55
2022/12/06 00:16:03;;;;;;;20.73;11.83;;;8.30;99.90;;;8.23;68.76;95577.97;5070990;28;21017;-55
2022/12/06 00:18:30;;;;;;;22.00;12.53;;;8.30;99.90;;;8.23;68.52;95575.34;5079495;28;20529;-55
2022/12/06 00:20:57;;;;;;;19.77;12.40;;;8.30;99.90;;;8.24;68.70;95579.66;5074700;28;20470;-57
2022/12/06 00:23:25;;;;;;;19.23;12.10;;;8.30;99.90;;;8.23;68.37;95577.97;5080903;28;20998;-53
2022/12/06 00:25:52;;;;;;;20.87;12.77;;;8.30;99.90;;;8.23;68.77;95579.75;5077860;28;20512;-56
2022/12/06 00:28:19;;;;;;;17.50;11.83;;;8.30;99.90;;;8.23;68.79;95583.19;5086813;28;20461;-56
2022/12/06 00:30:48;;;;;;;19.10;11.70;;;8.30;99.90;;;8.23;68.75;95585.81;5076587;28;20824;-56
2022/12/06 00:33:15;;;;;;;27.03;12.30;;;8.30;99.90;;;8.23;68.64;95591.06;5081753;28;20455;-57
2022/12/06 00:35:42;;;;;;;28.43;12.87;;;8.30;99.90;;;8.23;68.74;95580.59;5075344;28;21433;-55
2022/12/06 00:38:09;;;;;;;22.90;13.53;;;8.30;99.90;;;8.23;68.63;95580.59;5077374;28;20451;-56
2022/12/06 00:40:37;;;;;;;24.60;12.30;;;8.30;99.90;;;8.23;68.69;95579.75;5075889;28;20470;-56
2022/12/06 00:43:04;;;;;;;18.20;11.83;;;8.40;99.90;;;8.24;68.70;95582.25;5075761;28;20449;-54
2022/12/06 00:45:31;;;;;;;16.97;12.10;;;8.30;99.90;;;8.24;69.03;95577.03;5083713;28;20470;-55
2022/12/06 00:48:00;;;;;;;20.40;12.90;;;8.30;99.90;;;8.24;68.64;95577.03;5080974;28;20461;-53
2022/12/06 00:50:27;;;;;;;18.00;12.10;;;8.40;99.90;;;8.25;68.40;95577.84;5079828;28;20478;-56
2022/12/06 00:52:54;;;;;;;21.37;12.40;;;8.40;99.90;;;8.24;68.58;95578.78;5079875;28;20468;-54
2022/12/06 00:55:22;;;;;;;18.47;10.93;;;8.30;99.90;;;8.24;68.44;95573.53;5083903;28;20477;-54
2022/12/06 00:57:49;;;;;;;19.00;11.97;;;8.40;99.90;;;8.23;68.50;95564.03;5080134;28;20437;-55
2022/12/06 01:00:17;;;;;;;20.80;12.70;;;8.30;99.90;;;8.22;68.58;95559.72;5072552;28;20477;-55
2022/12/06 01:02:44;;;;;;;21.40;11.80;;;8.30;99.90;;;8.22;68.58;95559.72;5080572;28;20446;-56
2022/12/06 01:05:13;;;;;;;19.83;13.13;;;8.30;99.90;;;8.21;68.32;95558.03;5082436;28;20500;-61
2022/12/06 01:07:40;;;;;;;22.67;11.67;;;8.30;99.90;;;8.20;68.44;95570.31;5076475;28;20459;-54
2022/12/06 01:10:08;;;;;;;20.67;12.73;;;8.30;99.90;;;8.20;68.50;95572.09;5083054;28;20474;-54
2022/12/06 01:12:36;;;;;;;22.43;12.67;;;8.30;99.90;;;8.18;68.68;95563.50;5080509;28;20463;-56
2022/12/06 01:15:03;;;;;;;23.50;13.33;;;8.30;99.90;;;8.15;68.83;95559.34;5083077;28;20851;-56
2022/12/06 01:17:30;;;;;;;19.87;12.47;;;8.30;99.90;;;8.14;68.70;95546.34;5079607;28;20497;-56
2022/12/06 01:19:58;;;;;;;20.60;12.70;;;8.20;99.90;;;8.12;68.51;95551.69;5084210;28;20470;-56
2022/12/06 01:22:26;;;;;;;17.70;12.10;;;8.20;99.90;;;8.12;68.66;95545.59;5081307;28;20447;-56
2022/12/06 01:24:53;;;;;;;17.77;11.70;;;8.20;99.90;;;8.12;69.24;95537.72;5083908;28;20469;-54
2022/12/06 01:27:21;;;;;;;18.43;11.40;;;8.20;99.90;;;8.11;68.96;95539.53;5083210;28;20453;-57
2022/12/06 01:29:48;;;;;;;19.80;12.20;;;8.20;99.90;;;8.10;68.76;95532.59;5082111;28;20485;-57
2022/12/06 01:32:16;;;;;;;20.37;12.67;;;8.20;99.90;;;8.10;68.75;95532.59;5074040;28;20826;-56
2022/12/06 01:34:44;;;;;;;20.13;12.73;;;8.20;99.90;;;8.11;68.53;95528.22;5084518;28;20594;-55
2022/12/06 01:37:11;;;;;;;18.90;12.03;;;8.20;99.90;;;8.08;68.58;95526.63;5081378;28;20572;-57
2022/12/06 01:39:39;;;;;;;23.03;12.77;;;8.20;99.90;;;8.07;68.90;95527.56;5080324;28;20814;-56
2022/12/06 01:42:07;;;;;;;22.73;12.97;;;8.20;99.90;;;8.06;69.10;95526.75;5076787;28;20458;-54
2022/12/06 01:44:43;;;;;;;21.23;12.80;;;8.20;99.90;;;8.03;68.80;95526.97;5079769;28;20478;-57
2022/12/06 01:47:17;;;;;;;22.03;11.90;;;8.20;99.90;;;8.00;68.89;95526.34;5079560;28;20450;-55
2022/12/06 01:49:47;;;;;;;19.10;12.50;;;8.10;99.90;;;7.99;69.17;95535.13;5078986;28;20480;-55
2022/12/06 01:52:14;;;;;;;17.20;11.40;;;8.10;99.90;;;7.98;68.79;95533.47;5080604;28;20549;-56
2022/12/06 01:54:42;;;;;;;23.03;12.27;;;8.10;99.90;;;7.96;68.95;95533.56;5075039;28;20495;-56
2022/12/06 01:57:12;;;;;;;20.63;12.80;;;8.10;99.90;;;7.95;69.34;95529.28;5072683;28;21067;-54
2022/12/06 01:59:39;;;;;;;20.50;11.10;;;8.10;99.90;;;7.95;68.83;95526.66;5076328;28;20580;-54
2022/12/06 02:02:07;;;;;;;21.23;12.50;;;8.10;99.90;;;7.94;69.23;95526.78;5076660;28;20520;-55
2022/12/06 02:04:34;;;;;;;23.17;13.47;;;8.00;99.90;;;7.94;69.30;95532.84;5081019;28;20535;-56
2022/12/06 02:07:01;;;;;;;21.10;12.70;;;8.00;99.90;;;7.93;69.63;95522.47;5078217;28;20457;-56
2022/12/06 02:09:29;;;;;;;19.80;12.70;;;8.00;99.90;;;7.92;69.28;95513.78;5083825;28;20466;-55
2022/12/06 02:11:58;;;;;;;27.00;14.00;;;8.00;99.90;;;7.93;69.09;95512.81;5078718;28;20471;-55
2022/12/06 02:14:27;;;;;;;22.90;12.90;;;8.00;99.90;;;7.93;69.10;95519.84;5082402;28;20515;-55
2022/12/06 02:17:19;;;;;;;21.90;12.80;;;8.00;99.90;;;7.94;69.04;95511.06;5079150;28;20490;-55
2022/12/06 02:20:16;;;;;;;23.03;14.27;;;8.00;99.90;;;7.93;69.49;95514.63;5074034;28;20478;-56
2022/12/06 02:23:23;;;;;;;23.13;12.90;;;8.00;99.90;;;7.94;69.18;95513.69;5080453;28;20446;-55
2022/12/06 02:26:24;;;;;;;22.80;13.37;;;8.00;99.90;;;7.88;69.53;95499.22;5082090;28;20485;-53
2022/12/06 02:29:48;;;;;;;21.00;12.37;;;8.00;99.90;;;7.92;69.17;95502.44;5081616;28;20476;-55
2022/12/06 02:32:18;;;;;;;19.90;12.27;;;8.00;99.90;;;7.92;69.60;95505.06;5081594;28;20449;-55
2022/12/06 02:34:48;;;;;;;20.87;12.73;;;8.00;99.90;;;7.92;69.43;95494.59;5082178;28;20517;-54
2022/12/06 02:37:17;;;;;;;26.00;14.27;;;8.00;99.90;;;7.94;69.43;95497.97;5081199;28;20500;-54
2022/12/06 02:39:48;;;;;;;24.03;14.33;;;8.00;99.90;;;7.94;68.98;95490.09;5078318;28;20559;-55
2022/12/06 02:42:18;;;;;;;30.17;13.90;;;8.00;99.90;;;7.94;69.76;95487.50;5079240;28;20454;-55
2022/12/06 02:44:47;;;;;;;25.30;14.20;;;8.00;99.90;;;7.95;69.39;95486.53;5079864;28;20515;-56
2022/12/06 02:47:14;;;;;;;23.10;14.30;;;8.10;99.90;;;7.96;69.75;95481.19;5074072;28;20972;-55
2022/12/06 02:49:48;;;;;;;24.53;15.13;;;8.10;99.90;;;7.98;69.29;95481.06;5079902;28;20467;-55
2022/12/06 02:52:16;;;;;;;23.23;14.40;;;8.10;99.90;;;7.98;69.17;95481.94;5079414;28;20557;-53
2022/12/06 02:54:43;;;;;;;23.60;14.67;;;8.10;99.90;;;7.98;69.46;95481.94;5080952;28;20477;-55
2022/12/06 02:57:10;;;;;;;27.30;13.73;;;8.10;99.90;;;7.98;69.51;95475.81;5078815;28;20482;-57
2022/12/06 02:59:37;;;;;;;20.87;13.50;;;8.10;99.90;;;7.99;69.45;95480.13;5076492;28;20478;-56
2022/12/06 03:02:06;;;;;;;24.33;14.30;;;8.10;99.90;;;7.99;69.53;95486.19;5074560;28;21025;-54
2022/12/06 03:05:00;;;;;;;25.13;14.47;;;8.10;99.90;;;8.01;69.38;95491.31;5083988;28;20475;-55
2022/12/06 03:07:36;;;;;;;23.43;14.90;;;8.10;99.90;;;7.99;69.27;95485.38;5073468;28;20817;-56
2022/12/06 03:10:34;;;;;;;25.33;15.30;;;8.10;99.90;;;7.99;69.89;95482.75;5077669;28;21039;-55
2022/12/06 03:13:07;;;;;;;22.30;14.83;;;8.10;99.90;;;7.99;69.54;95477.50;5079821;28;20466;-53
2022/12/06 03:15:42;;;;;;;24.13;14.60;;;8.10;99.90;;;7.99;69.35;95483.56;5078922;28;21002;-57
2022/12/06 03:18:12;;;;;;;22.17;13.43;;;8.10;99.90;;;8.00;69.76;95477.41;5069318;28;20482;-57
2022/12/06 03:20:44;;;;;;;22.93;13.43;;;8.10;99.90;;;8.01;69.77;95475.59;5079598;28;20527;-56
2022/12/06 03:23:14;;;;;;;26.73;15.47;;;8.10;99.90;;;8.02;69.37;95479.91;5073957;28;20453;-57
2022/12/06 03:25:41;;;;;;;28.23;15.47;;;8.10;99.90;;;8.03;69.99;95477.19;5077542;28;20515;-56
2022/12/06 03:28:09;;;;;;;26.10;15.80;;;8.10;99.90;;;8.03;69.38;95479.81;5071371;28;20504;-55
2022/12/06 03:30:36;;;;;;;29.50;16.47;;;8.10;99.90;;;8.05;69.61;95482.31;5077882;28;20542;-56
2022/12/06 03:33:03;;;;;;;31.17;16.27;;;8.20;99.90;;;8.05;69.70;95474.47;5071321;28;20453;-56
2022/12/06 03:35:33;;;;;;;25.87;15.40;;;8.20;99.90;;;8.07;69.76;95478.66;5080940;28;20573;-55
2022/12/06 03:38:05;;;;;;;32.00;17.20;;;8.20;99.90;;;8.07;69.65;95469.94;5072008;28;20555;-54
2022/12/06 03:40:34;;;;;;;30.47;18.37;;;8.20;99.90;;;8.06;69.41;95469.09;5075326;28;20485;-56
2022/12/06 03:43:02;;;;;;;30.10;17.33;;;8.20;99.90;;;8.07;69.71;95467.31;5073046;28;20822;-59
2022/12/06 03:45:33;;;;;;;29.10;17.43;;;8.20;99.90;;;8.08;69.48;95466.38;5070913;28;20467;-55
2022/12/06 03:48:03;;;;;;;33.37;17.87;;;8.20;99.90;;;8.08;69.85;95469.00;5074719;28;20500;-53
2022/12/06 03:50:32;;;;;;;25.63;16.13;;;8.20;99.90;;;8.07;69.54;95462.06;5070643;28;20474;-57
2022/12/06 03:53:01;;;;;;;26.97;14.77;;;8.20;99.90;;;8.07;69.58;95467.31;5075649;28;21232;-55
2022/12/06 03:55:28;;;;;;;28.97;15.77;;;8.20;99.90;;;8.06;69.49;95463.03;5085193;28;20469;-56
2022/12/06 03:57:56;;;;;;;22.23;14.43;;;8.20;99.90;;;8.07;69.61;95469.94;5078268;28;20488;-56
2022/12/06 04:00:23;;;;;;;22.43;14.63;;;8.20;99.90;;;8.06;69.35;95461.25;5081725;28;20466;-54
2022/12/06 04:02:50;;;;;;;23.70;14.57;;;8.10;99.90;;;8.06;69.94;95457.81;5080413;28;20454;-55
2022/12/06 04:05:17;;;;;;;24.60;15.30;;;8.20;99.90;;;8.08;69.69;95461.13;5073856;28;20535;-57
2022/12/06 04:07:45;;;;;;;26.27;14.90;;;8.20;99.90;;;8.08;69.39;95459.34;5081018;28;20548;-56
2022/12/06 04:10:13;;;;;;;24.10;14.73;;;8.20;99.90;;;8.10;69.38;95459.22;5073681;28;20477;-59
2022/12/06 04:15:25;;;;;;;25.40;14.87;;;8.20;99.90;;;8.10;69.65;95474.97;5076411;28;20561;-55
2022/12/06 04:18:09;;;;;;;26.70;15.40;;;8.20;99.90;;;8.10;69.08;95464.47;5078368;28;20485;-57
2022/12/06 04:23:26;;;;;;;26.57;15.20;;;8.20;99.90;;;8.08;69.51;95466.38;5081130;28;20503;-54
2022/12/06 04:25:55;;;;;;;25.77;15.23;;;8.20;99.90;;;8.08;69.49;95474.25;5082842;28;20590;-55
2022/12/06 04:39:21;;;;;;;42.73;25.17;;;8.20;99.90;;;8.09;69.70;95468.06;5080137;28;20534;-55
2022/12/06 04:44:35;;;;;;;32.53;15.83;;;8.20;99.90;;;8.08;69.19;95459.34;5082169;28;20867;-57
2022/12/06 04:47:02;;;;;;;34.93;15.63;;;8.20;99.90;;;8.09;69.69;95462.81;5084582;28;20510;-56
2022/12/06 04:49:30;;;;;;;23.77;15.53;;;8.20;99.90;;;8.10;69.22;95464.47;5084860;28;21028;-55
2022/12/06 04:51:57;;;;;;;25.30;16.43;;;8.20;99.90;;;8.11;69.53;95457.47;5083178;28;20450;-54
2022/12/06 04:54:24;;;;;;;31.13;17.40;;;8.20;99.90;;;8.11;69.63;95458.31;5075515;28;20481;-57
2022/12/06 04:56:53;;;;;;;29.27;16.77;;;8.20;99.90;;;8.12;69.64;95461.75;5080518;28;20919;-55
2022/12/06 04:59:20;;;;;;;46.03;16.07;;;8.20;99.90;;;8.14;69.79;95459.88;5075748;28;20994;-57
2022/12/06 05:01:48;;;;;;;27.63;15.07;;;8.20;99.90;;;8.14;69.70;95463.31;5082842;28;20875;-56
2022/12/06 05:04:15;;;;;;;31.33;17.67;;;8.20;99.90;;;8.14;69.59;95462.50;5080283;28;20477;-55
2022/12/06 05:06:42;;;;;;;28.87;16.00;;;8.20;99.90;;;8.11;69.41;95465.34;5081869;28;20446;-55
2022/12/06 05:09:10;;;;;;;26.00;14.60;;;8.20;99.90;;;8.07;69.83;95459.44;5079229;28;20477;-56
2022/12/06 05:11:37;;;;;;;30.70;15.63;;;8.20;99.90;;;8.04;69.29;95459.69;5079891;28;20462;-55
2022/12/06 05:14:06;;;;;;;31.20;16.13;;;8.20;99.90;;;7.99;69.13;95457.38;5080605;28;20478;-56
2022/12/06 05:16:33;;;;;;;29.23;14.03;;;8.10;99.90;;;7.96;69.33;95457.59;5082888;28;20462;-56
2022/12/06 05:19:00;;;;;;;35.10;14.27;;;8.10;99.90;;;7.88;69.33;95454.69;5083305;28;20473;-56
2022/12/06 05:21:28;;;;;;;23.27;13.20;;;8.00;99.90;;;7.79;69.57;95453.59;5082306;28;20461;-53
2022/12/06 05:23:56;;;;;;;22.90;13.73;;;8.00;99.90;;;7.70;69.43;95454.25;5077597;28;20545;-57
2022/12/06 05:26:25;;;;;;;23.47;13.60;;;7.90;99.90;;;7.63;69.58;95458.22;5084246;28;20477;-56
2022/12/06 05:28:53;;;;;;;29.87;14.90;;;7.80;99.90;;;7.61;69.43;95470.59;5078926;28;20473;-56
2022/12/06 05:31:21;;;;;;;26.33;13.80;;;7.80;99.90;;;7.59;69.78;95469.84;5081024;28;20511;-57
2022/12/06 05:33:49;;;;;;;32.87;14.97;;;7.70;99.90;;;7.60;70.04;95472.34;5081576;28;20459;-55
2022/12/06 05:36:18;;;;;;;27.20;15.10;;;7.80;99.90;;;7.64;70.07;95463.34;5085502;28;20459;-55
2022/12/06 05:38:46;;;;;;;25.73;12.93;;;7.80;99.90;;;7.69;70.00;95461.22;5082334;28;20496;-57
2022/12/06 05:41:13;;;;;;;24.97;14.23;;;7.80;99.90;;;7.75;69.74;95461.78;5080930;28;20484;-56
2022/12/06 05:43:41;;;;;;;26.20;14.20;;;7.90;99.90;;;7.76;69.50;95459.03;5079002;28;20539;-56
2022/12/06 05:46:08;;;;;;;22.00;11.10;;;7.90;99.90;;;7.75;69.66;95454.75;5077784;28;20527;-55
2022/12/06 05:48:37;;;;;;;20.93;11.67;;;7.90;99.90;;;7.73;69.43;95451.41;5077101;28;20881;-53
2022/12/06 05:51:04;;;;;;;30.57;11.70;;;7.90;99.90;;;7.71;69.44;95451.50;5085221;28;20492;-57
2022/12/06 05:53:32;;;;;;;20.80;12.20;;;7.90;99.90;;;7.69;69.84;95442.09;5083059;28;20545;-57
2022/12/06 05:56:06;;;;;;;25.37;11.30;;;7.80;99.90;;;7.67;69.90;95441.34;5076916;28;20835;-56
2022/12/06 05:58:33;;;;;;;24.97;13.27;;;7.80;99.90;;;7.67;69.89;95444.81;5078281;28;20539;-57
2022/12/06 06:01:00;;;;;;;18.67;11.13;;;7.80;99.90;;;7.66;70.03;95444.91;5080188;28;20523;-55
2022/12/06 06:03:27;;;;;;;24.10;11.33;;;7.80;99.90;;;7.63;69.63;95443.34;5081214;28;20866;-55
2022/12/06 06:05:58;;;;;;;20.23;11.50;;;7.80;99.90;;;7.60;69.84;95435.69;5080716;28;20481;-55
2022/12/06 06:08:25;;;;;;;21.70;11.80;;;7.80;99.90;;;7.57;70.22;95443.75;5079079;28;20615;-56
2022/12/06 06:10:52;;;;;;;23.90;11.40;;;7.70;99.90;;;7.56;70.26;95449.09;5081450;28;20465;-55
2022/12/06 06:13:20;;;;;;;23.63;13.40;;;7.70;99.90;;;7.56;70.01;95451.72;5080865;28;20449;-55
2022/12/06 06:15:49;;;;;;;23.90;12.50;;;7.70;99.90;;;7.59;69.74;95454.13;5080427;28;20485;-57
2022/12/06 06:18:16;;;;;;;27.07;11.40;;;7.70;99.90;;;7.64;69.82;95446.81;5078571;28;20521;-56
2022/12/06 06:20:50;;;;;;;21.57;12.77;;;7.80;99.90;;;7.69;70.05;95456.00;5080832;28;20470;-55
2022/12/06 06:23:20;;;;;;;18.60;12.10;;;7.80;99.90;;;7.73;70.30;95454.03;5079108;28;20482;-57
2022/12/06 06:25:47;;;;;;;22.27;11.70;;;7.90;99.90;;;7.77;69.66;95455.47;5081660;28;20535;-57
2022/12/06 06:28:15;;;;;;;23.27;13.07;;;7.90;99.90;;;7.88;70.14;95460.78;5078586;28;20813;-55
2022/12/06 06:30:42;;;;;;;22.90;11.43;;;8.00;99.90;;;7.95;69.34;95455.94;5081806;28;20870;-57
2022/12/06 06:33:09;;;;;;;24.13;13.23;;;8.00;99.90;;;8.01;69.85;95459.91;5077220;28;20457;-54
2022/12/06 06:35:37;;;;;;;22.43;13.60;;;8.10;99.90;;;8.05;69.13;95453.50;5081265;28;21325;-56
2022/12/06 06:38:05;;;;;;;26.03;12.70;;;8.10;99.90;;;8.11;69.60;95458.31;5078846;28;20489;-57
2022/12/06 06:40:33;;;;;;;30.63;13.80;;;8.20;99.90;;;8.16;69.38;95456.19;5081734;28;20473;-55
2022/12/06 06:43:16;;;;;;;26.20;14.77;;;8.20;99.90;;;8.21;68.65;95446.22;5070425;28;20454;-56
2022/12/06 06:45:45;;;;;;;25.83;13.80;;;8.30;99.90;;;8.24;68.71;95448.63;5074443;28;20469;-54
2022/12/06 06:48:13;;;;;;;25.23;13.40;;;8.30;99.90;;;8.25;68.48;95446.81;5079920;28;20862;-55
2022/12/06 06:50:40;;;;;;;28.77;13.80;;;8.30;99.90;;;8.25;68.42;95445.03;5079592;28;20496;-57
2022/12/06 06:53:08;;;;;;;44.63;13.93;;;8.30;99.90;;;8.28;68.62;95451.00;5080498;28;20569;-56
2022/12/06 06:55:36;;;;;;;27.20;13.80;;;8.30;99.90;;;8.32;68.79;95441.97;5079177;28;20471;-55
2022/12/06 06:58:04;;;;;;;32.60;13.67;;;8.40;99.90;;;8.37;68.45;95439.88;5080502;28;20804;-56
2022/12/06 07:00:31;;;;;;;23.63;14.10;;;8.40;99.90;;;8.41;68.71;95446.53;5074735;28;20463;-57
2022/12/06 07:02:59;;;;;;;31.53;15.10;;;8.50;99.90;;;8.46;68.42;95448.84;5081707;28;20450;-56
2022/12/06 07:05:27;;;;;;;26.97;13.67;;;8.50;99.90;;;8.52;68.20;95449.25;5078264;28;20479;-57
2022/12/06 07:07:56;;;;;;;20.30;11.03;;;8.60;99.90;;;8.58;68.16;95448.81;5081312;28;20542;-57
2022/12/06 07:10:26;;;;;;;16.60;10.23;;;8.60;99.90;;;8.61;67.75;95438.09;5077186;28;20482;-55
2022/12/06 07:12:54;;;;;;;17.20;10.03;;;8.70;99.90;;;8.66;67.58;95447.38;5079426;28;20454;-55
2022/12/06 07:15:22;;;;;;;21.23;10.13;;;8.70;99.90;;;8.71;67.40;95432.16;5077289;28;20998;-55
2022/12/06 07:17:50;;;;;;;24.60;9.77;;;8.80;99.90;;;8.77;67.39;95442.19;5080993;28;20490;-57
2022/12/06 07:20:18;;;;;;;23.73;10.37;;;8.90;99.90;;;8.84;66.94;95438.13;5078182;28;21006;-55
2022/12/06 07:22:45;;;;;;;16.97;10.03;;;8.90;99.90;;;8.94;66.96;95440.94;5080440;28;20454;-56
2022/12/06 07:25:13;;;;;;;27.07;15.67;;;9.00;99.90;;;9.05;66.41;95448.00;5078306;28;20479;-56
2022/12/06 07:27:40;;;;;;;36.97;14.07;;;9.10;99.90;;;9.10;66.32;95441.44;5080179;28;20489;-56
2022/12/06 07:30:10;;;;;;;35.63;16.43;;;9.10;99.90;;;9.18;65.91;95445.25;5078020;28;20494;-53
2022/12/06 07:32:38;;;;;;;28.73;14.40;;;9.20;99.90;;;9.24;66.00;95445.63;5072429;28;21067;-58
2022/12/06 07:35:06;;;;;;;27.50;13.90;;;9.30;99.90;;;9.30;65.48;95442.53;5078054;28;21024;-58
2022/12/06 07:37:33;;;;;;;35.30;15.03;;;9.30;99.90;;;9.35;65.42;95443.97;5079655;28;20485;-57
2022/12/06 07:40:01;;;;;;;26.87;12.30;;;9.40;99.90;;;9.31;65.25;95431.09;5079247;28;20478;-56
2022/12/06 07:45:14;;;;;;;36.23;14.33;;;9.40;99.90;;;9.23;64.86;95438.69;5077766;28;20979;-57
2022/12/06 07:47:43;;;;;;;17.23;12.23;;;9.30;99.90;;;9.22;64.77;95434.41;5077403;28;20508;-55
2022/12/06 07:50:13;;;;;;;20.50;13.10;;;9.30;99.90;;;9.23;64.86;95433.44;5080671;28;21315;-57
2022/12/06 07:52:40;;;;;;;38.37;13.47;;;9.30;99.90;;;9.17;64.83;95433.09;5072941;28;20470;-56
2022/12/06 07:55:09;;;;;;;29.10;14.73;;;9.20;99.90;;;9.16;65.36;95440.13;5075552;28;20476;-55
2022/12/06 07:57:36;;;;;;;35.47;15.17;;;9.20;99.90;;;9.15;64.99;95443.69;5070469;28;20544;-58
2022/12/06 08:00:06;;;;;;;39.67;16.20;;;9.20;99.90;;;9.14;64.85;95444.66;5079149;28;20462;-57
2022/12/06 08:02:34;;;;;;;30.03;15.70;;;9.20;99.90;;;9.13;64.88;95438.56;5071034;28;20481;-55
2022/12/06 08:05:02;;;;;;;28.33;14.73;;;9.20;99.90;;;9.16;65.15;95445.38;5074311;28;20481;-57
2022/12/06 08:07:30;;;;;;;25.37;12.50;;;9.20;99.90;;;9.19;65.22;95445.16;5071654;28;20508;-55
2022/12/06 08:09:57;;;;;;;20.30;12.27;;;9.20;99.90;;;9.21;64.94;95445.84;5073631;28;20531;-55
2022/12/06 08:12:25;;;;;;;20.67;12.50;;;9.30;99.90;;;9.21;65.23;95443.22;5071697;28;20866;-58
2022/12/06 08:14:52;;;;;;;35.57;12.37;;;9.30;99.90;;;9.20;65.00;95431.09;5075422;28;20531;-56
2022/12/06 08:17:19;;;;;;;26.10;11.63;;;9.30;99.90;;;9.22;65.23;95437.03;5072885;28;21041;-56
2022/12/06 08:19:48;;;;;;;23.40;11.37;;;9.30;99.90;;;9.28;65.02;95436.56;5076280;28;20492;-57
2022/12/06 08:22:15;;;;;;;16.40;9.80;;;9.30;99.90;;;9.35;64.54;95430.84;5073030;28;20958;-55
2022/12/06 08:24:43;;;;;;;14.07;9.90;;;9.40;99.90;;;9.38;64.63;95433.22;5077224;28;20500;-58
2022/12/06 08:27:10;;;;;;;19.67;10.63;;;9.40;99.90;;;9.42;64.59;95426.78;5072307;28;20519;-57
2022/12/06 08:29:38;;;;;;;27.70;10.27;;;9.40;99.90;;;9.43;64.59;95433.72;5069241;28;20494;-55
2022/12/06 08:32:05;;;;;;;17.20;10.57;;;9.50;99.90;;;9.46;64.28;95428.22;5074369;28;21052;-57
2022/12/06 08:34:33;;;;;;;19.27;9.90;;;9.50;99.90;;;9.51;64.32;95424.28;5068514;28;20478;-57
2022/12/06 08:37:02;;;;;;;15.73;9.60;;;9.60;99.90;;;9.59;64.00;95433.34;5077097;28;20483;-56
2022/12/06 08:39:30;;;;;;;20.00;9.40;;;9.60;99.90;;;9.58;63.80;95421.19;5066735;28;20662;-57
2022/12/06 08:42:02;;;;;;;12.67;7.93;;;9.70;99.90;;;9.57;63.93;95430.84;5076148;28;20563;-56
2022/12/06 08:44:30;;;;;;;15.27;8.27;;;9.70;99.90;;;9.54;64.03;95427.63;5075375;28;20477;-56
2022/12/06 08:46:58;;;;;;;12.00;9.10;;;9.70;99.90;;;9.50;63.81;95421.78;5084217;28;20461;-55
2022/12/06 08:49:26;;;;;;;15.27;9.23;;;9.60;99.90;;;9.51;64.10;95426.91;5080695;28;20493;-55
2022/12/06 08:51:53;;;;;;;17.20;9.10;;;9.60;99.90;;;9.53;63.96;95424.16;5084364;28;20453;-55
2022/12/06 08:54:23;;;;;;;15.37;9.10;;;9.60;99.90;;;9.55;63.90;95421.44;5080089;28;20905;-55
2022/12/06 08:56:50;;;;;;;11.67;7.40;;;9.60;99.90;;;9.57;63.84;95422.13;5083445;28;20453;-56
2022/12/06 08:59:18;;;;;;;14.13;9.10;;;9.60;99.90;;;9.61;63.69;95423.56;5081504;28;20491;-54
2022/12/06 09:01:45;;;;;;;18.37;9.90;;;9.70;99.90;;;9.67;63.46;95426.53;5079070;28;20461;-56
2022/12/06 09:04:13;;;;;;;12.17;8.17;;;9.70;99.90;;;9.71;63.25;95416.63;5078439;28;20474;-59
2022/12/06 09:06:41;;;;;;;18.43;8.77;;;9.70;99.90;;;9.75;63.71;95412.81;5082422;28;20846;-55
2022/12/06 09:09:09;;;;;;;20.73;9.50;;;9.80;99.90;;;9.81;63.26;95399.19;5081509;28;20477;-57
2022/12/06 09:11:39;;;;;;;13.53;9.10;;;9.90;99.90;;;9.91;62.90;95386.13;5081969;28;20456;-55
2022/12/06 09:14:07;;;;;;;13.67;8.10;;;9.90;99.90;;;10.01;62.81;95376.56;5082364;28;20549;-55
2022/12/06 09:16:35;;;;;;;14.83;8.03;;;10.00;99.20;;;10.10;62.42;95385.50;5080934;28;20914;-58
2022/12/06 09:19:02;;;;;;;22.73;8.00;;;10.10;99.00;;;10.15;62.50;95372.81;5082618;28;20493;-57
2022/12/06 09:21:31;;;;;;;13.30;8.60;;;10.20;99.00;;;10.20;61.82;95368.00;5081197;28;20906;-58
2022/12/06 09:23:59;;;;;;;16.50;9.27;;;10.30;98.70;;;10.23;61.67;95366.94;5085557;28;20950;-56
2022/12/06 09:26:26;;;;;;;15.73;10.50;;;10.30;98.40;;;10.25;61.90;95361.56;5080176;28;20465;-57
2022/12/06 09:28:56;;;;;;;18.90;10.83;;;10.30;98.60;;;10.26;61.69;95353.53;5083061;28;20462;-57
2022/12/06 09:31:23;;;;;;;19.80;10.13;;;10.30;98.40;;;10.32;62.05;95344.34;5072317;28;20489;-56
2022/12/06 09:33:51;;;;;;;24.47;10.27;;;10.40;98.70;;;10.37;61.80;95342.19;5079174;28;20558;-55
2022/12/06 09:36:21;;;;;;;15.60;9.60;;;10.40;98.50;;;10.43;61.43;95344.31;5077182;28;20491;-56
2022/12/06 09:38:49;;;;;;;19.23;9.00;;;10.50;98.40;;;10.47;60.62;95329.94;5083192;28;20486;-57
2022/12/06 09:41:32;;;;;;;19.80;9.23;;;10.50;97.80;;;10.54;61.43;95331.09;5079563;28;20848;-56
2022/12/06 09:44:13;;;;;;;11.27;7.20;;;10.60;98.30;;;10.66;61.14;95329.22;5076156;28;20892;-58
2022/12/06 09:46:51;;;;;;;20.37;8.70;;;10.70;97.90;;;10.75;60.75;95333.72;5079094;28;20549;-57
2022/12/06 09:49:30;;;;;;;15.43;7.30;;;10.80;97.90;;;10.79;60.26;95333.47;5079201;28;20471;-55
2022/12/06 09:52:26;;;;;;;11.93;8.00;;;10.80;97.50;;;10.74;60.65;95328.59;5082346;28;20449;-55
2022/12/06 09:55:20;;;;;;;12.43;8.57;;;10.80;97.50;;;10.77;60.49;95334.41;5079650;28;21010;-57
2022/12/06 09:57:51;;;;;;;14.70;8.10;;;10.90;97.60;;;10.84;60.33;95333.91;5077261;28;20853;-57
2022/12/06 10:00:21;;;;;;;11.47;8.10;;;10.90;97.20;;;10.88;60.50;95316.91;5070951;28;20474;-56
2022/12/06 10:03:10;;;;;;;24.77;10.50;;;11.00;97.30;;;10.90;60.19;95309.69;5078525;28;20518;-56
2022/12/06 10:05:46;;;;;;;21.13;11.10;;;10.90;97.20;;;10.98;60.16;95311.66;5078569;28;20467;-56
2022/12/06 10:08:24;;;;;;;18.00;8.57;;;11.00;97.30;;;11.10;60.22;95297.44;5081618;28;20480;-57
2022/12/06 10:10:58;;;;;;;23.67;11.07;;;11.10;97.20;;;11.34;59.36;95286.59;5080909;28;20477;-58
2022/12/06 10:13:38;;;;;;;18.93;10.43;;;11.30;96.90;;;11.79;59.11;95294.03;5079762;28;20594;-55
2022/12/06 10:16:24;;;;;;;18.83;9.10;;;11.70;96.90;;;12.18;58.09;95283.53;5079662;28;20446;-55
2022/12/06 10:19:07;;;;;;;15.80;8.73;;;12.10;96.30;;;12.58;57.09;95272.94;5076875;28;20577;-57
2022/12/06 10:21:42;;;;;;;15.70;10.00;;;12.50;95.70;;;13.01;56.49;95258.34;5074742;28;20439;-56
2022/12/06 10:24:20;;;;;;;17.77;9.10;;;12.80;95.40;;;13.32;55.28;95253.63;5081420;28;20469;-57
2022/12/06 10:26:51;;;;;;;16.13;7.97;;;13.20;94.40;;;13.88;55.11;95262.38;5078557;28;20438;-57
2022/12/06 10:29:21;;;;;;;15.03;9.90;;;13.70;94.10;;;14.79;52.50;95263.09;5076400;28;21005;-56
2022/12/06 10:31:58;;;;;;;15.93;8.87;;;14.40;93.00;;;15.38;52.35;95256.13;5079184;28;20450;-54
2022/12/06 10:34:39;;;;;;;16.90;9.03;;;14.90;92.50;;;15.59;50.73;95260.16;5078839;28;20466;-55
2022/12/06 10:37:13;;;;;;;14.47;9.20;;;15.30;91.00;;;15.79;50.14;95262.56;5079190;28;20434;-58
2022/12/06 10:39:46;;;;;;;15.60;9.10;;;15.60;89.00;;;15.92;50.47;95260.25;5078236;28;20494;-58
2022/12/06 10:42:16;;;;;;;14.33;9.07;;;15.80;88.70;;;16.61;50.19;95260.78;5075826;28;20439;-56
2022/12/06 10:44:46;;;;;;;13.47;8.20;;;16.20;88.40;;;17.14;48.62;95250.59;5078759;28;20534;-56
2022/12/06 10:47:16;;;;;;;10.60;8.53;;;16.70;85.60;;;17.67;47.12;95252.69;5076953;28;20499;-55
2022/12/06 10:49:51;;;;;;;20.13;8.30;;;17.30;83.30;;;18.39;45.35;95247.09;5078130;28;20462;-56
2022/12/06 10:52:30;;;;;;;18.63;9.40;;;17.90;79.40;;;18.78;45.33;95243.41;5078441;28;20781;-55